Time;durP1;ratioP1;P1;durP2;ratioP2;P2;SDS_P1;SDS_P2;PMS_P1;PMS_P2;Temp;Humidity;BMP_temperature;BMP_pressure;BME280_temperature;BME280_humidity;BME280_pressure;Samples;Min_cycle;Max_cycle;Signal;HPM_P1;HPM_P2
2022/12/17 13:06:14;;;;;;;0.30;0.30;;;;;;;-1.49;100.00;102592.19;5070579;28;20513;-72
2022/12/17 13:08:40;;;;;;;0.30;0.30;;;;;;;-1.75;100.00;102580.75;5069013;28;20313;-71
2022/12/17 13:11:29;;;;;;;0.30;0.30;;;;;;;-1.28;100.00;102597.47;5071901;28;20039;-71
2022/12/17 13:13:59;;;;;;;0.30;0.30;;;;;;;-1.76;100.00;102563.19;5074491;28;20484;-71
2022/12/17 13:16:41;;;;;;;0.40;0.40;;;;;;;-1.69;100.00;102570.22;5068368;28;20031;-71
2022/12/17 13:19:30;;;;;;;0.30;0.30;;;;;;;-1.80;100.00;102585.13;5070448;28;20070;-71
2022/12/17 13:22:13;;;;;;;0.30;0.30;;;;;;;-1.83;100.00;102591.28;5070762;28;20032;-71
2022/12/17 13:24:43;;;;;;;0.40;0.40;;;;;;;-1.54;100.00;102598.34;5072000;28;20751;-71
2022/12/17 13:27:31;;;;;;;0.30;0.30;;;;;;;-1.75;100.00;102595.69;5065359;28;20020;-71
2022/12/17 13:30:21;;;;;;;0.30;0.30;;;;;;;-1.78;100.00;102596.53;5057996;28;20492;-71
2022/12/17 13:33:28;;;;;;;0.40;0.40;;;;;;;-1.57;100.00;102576.38;5073358;28;20023;-71
2022/12/17 13:36:07;;;;;;;0.30;0.30;;;;;;;-1.89;100.00;102583.34;5054795;28;20060;-71
2022/12/17 13:38:49;;;;;;;0.35;0.35;;;;;;;-1.87;100.00;102597.41;5074454;28;20140;-70
2022/12/17 13:41:17;;;;;;;0.40;0.40;;;;;;;-1.82;100.00;102587.75;5071502;28;20062;-71
2022/12/17 13:43:47;;;;;;;0.40;0.40;;;;;;;-1.92;100.00;102593.00;5072087;28;20027;-71
2022/12/17 13:46:21;;;;;;;0.30;0.30;;;;;;;-2.18;100.00;102594.66;5072188;28;20032;-71
2022/12/17 13:48:56;;;;;;;0.40;0.40;;;;;;;-2.06;100.00;102599.09;5065937;28;20024;-71
2022/12/17 13:51:22;;;;;;;0.32;0.32;;;;;;;-2.13;100.00;102589.44;5065883;28;20032;-71
2022/12/17 13:53:59;;;;;;;0.40;0.40;;;;;;;-2.27;100.00;102587.63;5068928;28;20024;-72
2022/12/17 13:56:27;;;;;;;0.30;0.30;;;;;;;-2.39;100.00;102558.66;5068969;28;20021;-71
2022/12/17 13:58:54;;;;;;;0.35;0.35;;;;;;;-2.35;100.00;102584.06;5069823;28;20023;-71
2022/12/17 14:01:19;;;;;;;0.30;0.30;;;;;;;-2.19;100.00;102571.84;5064410;28;20114;-71
2022/12/17 14:03:53;;;;;;;0.40;0.40;;;;;;;-2.28;100.00;102588.50;5068823;28;20073;-71
2022/12/17 14:06:20;;;;;;;0.40;0.40;;;;;;;-2.39;100.00;102576.16;5071178;28;20758;-71
2022/12/17 14:08:47;;;;;;;0.40;0.40;;;;;;;-2.18;100.00;102592.03;5072875;28;20028;-71
2022/12/17 14:13:56;;;;;;;0.40;0.40;;;;;;;-2.65;100.00;102575.19;5079742;28;20039;-71
2022/12/17 14:16:22;;;;;;;0.30;0.30;;;;;;;-2.48;100.00;102579.63;5065743;28;20032;-71
2022/12/17 14:18:52;;;;;;;0.40;0.40;;;;;;;-2.66;100.00;102575.16;5072347;28;20036;-71
2022/12/17 14:21:18;;;;;;;0.30;0.30;;;;;;;-2.35;100.00;102604.25;5046581;28;20055;-71
2022/12/17 14:23:44;;;;;;;0.40;0.40;;;;;;;-2.55;100.00;102599.78;5064315;28;20028;-71
2022/12/17 14:26:10;;;;;;;0.40;0.40;;;;;;;-2.42;100.00;102612.09;5064420;28;20069;-72
2022/12/17 14:28:47;;;;;;;0.30;0.30;;;;;;;-2.68;100.00;102613.72;5064533;28;20019;-71
2022/12/17 14:31:12;;;;;;;0.40;0.40;;;;;;;-2.45;100.00;102619.97;5066997;28;20025;-71
2022/12/17 14:33:38;;;;;;;0.40;0.40;;;;;;;-2.63;100.00;102628.63;5068905;28;20021;-71
2022/12/17 14:36:09;;;;;;;0.40;0.40;;;;;;;-2.51;100.00;102629.59;5066305;28;20036;-71
2022/12/17 14:38:34;;;;;;;0.40;0.40;;;;;;;-2.73;100.00;102605.81;5066550;28;20028;-71
2022/12/17 14:42:24;;;;;;;0.30;0.30;;;;;;;-2.50;100.00;102618.22;5067793;28;20335;-72
2022/12/17 14:43:54;;;;;;;0.30;0.30;;;;;;;-2.62;100.00;102617.25;5061305;28;21625;-71
2022/12/17 14:46:20;;;;;;;0.40;0.40;;;;;;;-2.51;100.00;102619.06;5058055;28;20118;-72
2022/12/17 14:49:02;;;;;;;0.40;0.40;;;;;;;-2.61;100.00;102589.22;5067195;28;20062;-71
2022/12/17 14:51:39;;;;;;;0.30;0.30;;;;;;;-2.58;100.00;102629.56;5053022;28;20398;-71
2022/12/17 14:54:18;;;;;;;0.40;0.40;;;;;;;-2.52;100.00;102630.47;5063362;28;20047;-72
2022/12/17 14:56:45;;;;;;;0.40;0.40;;;;;;;-2.64;100.00;102634.78;5059751;28;20036;-72
2022/12/17 14:59:31;;;;;;;0.40;0.40;;;;;;;-2.80;100.00;102632.91;5070719;28;20039;-72
2022/12/17 15:01:59;;;;;;;0.40;0.40;;;;;;;-2.79;100.00;102632.94;5063379;28;20036;-72
2022/12/17 15:04:24;;;;;;;0.35;0.35;;;;;;;-2.63;100.00;102607.59;5073989;28;20093;-72
2022/12/17 15:06:53;;;;;;;0.30;0.30;;;;;;;-2.59;100.00;102629.56;5054233;28;20360;-72
2022/12/17 15:09:18;;;;;;;0.40;0.40;;;;;;;-2.90;100.00;102610.94;5055203;28;20064;-73
2022/12/17 15:11:43;;;;;;;0.35;0.35;;;;;;;-2.83;100.00;102603.97;5049525;28;20549;-72
2022/12/17 15:14:09;;;;;;;0.40;0.40;;;;;;;-2.82;100.00;102601.38;5061194;28;20473;-72
2022/12/17 15:16:34;;;;;;;0.30;0.30;;;;;;;-2.57;100.00;102617.31;5067320;28;20539;-72
2022/12/17 15:19:00;;;;;;;0.40;0.40;;;;;;;-2.81;100.00;102607.50;5064959;28;20482;-72
2022/12/17 15:21:25;;;;;;;0.40;0.40;;;;;;;-2.67;100.00;102634.78;5064465;28;20118;-72
2022/12/17 15:23:51;;;;;;;0.40;0.40;;;;;;;-3.08;100.00;102609.97;5067375;28;20671;-72
2022/12/17 15:26:17;;;;;;;0.40;0.40;;;;;;;-2.88;100.00;102646.88;5049672;28;20364;-74
2022/12/17 15:28:42;;;;;;;0.40;0.40;;;;;;;-3.11;100.00;102611.66;5052698;28;20081;-72
2022/12/17 15:31:09;;;;;;;0.40;0.40;;;;;;;-3.03;100.00;102617.88;5046389;28;20036;-72
2022/12/17 15:33:34;;;;;;;0.40;0.40;;;;;;;-2.86;100.00;102654.81;5053432;28;20367;-72
2022/12/17 15:36:00;;;;;;;0.35;0.35;;;;;;;-2.81;100.00;102658.34;5060906;28;20033;-72
2022/12/17 15:38:25;;;;;;;0.40;0.40;;;;;;;-3.09;100.00;102652.88;5072006;28;20040;-72
2022/12/17 15:40:50;;;;;;;0.40;0.40;;;;;;;-2.90;100.00;102655.63;5066724;28;20122;-71
2022/12/17 15:43:16;;;;;;;0.40;0.40;;;;;;;-3.07;100.00;102626.59;5055810;28;20446;-72
2022/12/17 15:45:46;;;;;;;0.30;0.30;;;;;;;-2.91;100.00;102662.63;5074233;28;20046;-72
2022/12/17 15:48:13;;;;;;;0.38;0.38;;;;;;;-2.82;100.00;102660.94;5073434;28;20036;-72
2022/12/17 15:50:38;;;;;;;0.40;0.40;;;;;;;-2.68;100.00;102664.56;5057826;28;20033;-72
2022/12/17 15:53:04;;;;;;;0.40;0.40;;;;;;;-2.80;100.00;102662.75;5069453;28;20027;-72
2022/12/17 15:55:30;;;;;;;0.40;0.40;;;;;;;-2.90;100.00;102632.84;5057133;28;20035;-72
2022/12/17 15:57:56;;;;;;;0.30;0.30;;;;;;;-2.95;100.00;102637.22;5069817;28;20139;-72
2022/12/17 16:00:23;;;;;;;0.40;0.40;;;;;;;-2.89;100.00;102654.78;5068652;28;20032;-72
2022/12/17 16:02:49;;;;;;;0.32;0.32;;;;;;;-2.60;100.00;102670.75;5052761;28;20033;-72
2022/12/17 16:05:14;;;;;;;0.30;0.30;;;;;;;-2.48;100.00;102674.34;5073676;28;20102;-72
2022/12/17 16:07:39;;;;;;;0.38;0.38;;;;;;;-2.75;100.00;102657.50;5071357;28;20024;-73
2022/12/17 16:10:05;;;;;;;0.40;0.40;;;;;;;-2.96;100.00;102679.25;5066683;28;20086;-75
2022/12/17 16:12:31;;;;;;;0.32;0.32;;;;;;;-2.82;100.00;102672.38;5067517;28;20142;-72
2022/12/17 16:14:56;;;;;;;0.40;0.40;;;;;;;-3.07;100.00;102674.78;5067344;28;20036;-73
2022/12/17 16:17:22;;;;;;;0.40;0.40;;;;;;;-2.95;100.00;102673.13;5065289;28;20062;-72
2022/12/17 16:19:47;;;;;;;0.40;0.40;;;;;;;-2.81;100.00;102675.84;5073851;28;20032;-72
2022/12/17 16:22:12;;;;;;;0.40;0.40;;;;;;;-2.78;100.00;102684.63;5068928;28;20131;-72
2022/12/17 16:24:39;;;;;;;0.40;0.40;;;;;;;-2.80;100.00;102691.66;5062678;28;20032;-72
2022/12/17 16:27:05;;;;;;;0.40;0.40;;;;;;;-3.02;100.00;102664.31;5065760;28;20038;-72
2022/12/17 16:29:30;;;;;;;0.40;0.40;;;;;;;-3.16;100.00;102687.84;5067906;28;20032;-72
2022/12/17 16:31:56;;;;;;;0.30;0.30;;;;;;;-3.13;100.00;102668.59;5066050;28;20020;-72
2022/12/17 16:34:21;;;;;;;0.30;0.30;;;;;;;-3.28;100.00;102692.97;5066998;28;21935;-72
2022/12/17 16:36:46;;;;;;;0.40;0.40;;;;;;;-3.32;100.00;102697.31;5052276;28;20024;-72
2022/12/17 16:39:15;;;;;;;0.30;0.30;;;;;;;-2.93;100.00;102706.47;5050823;28;20111;-71
2022/12/17 16:41:40;;;;;;;0.50;0.50;;;;;;;-3.33;100.00;102683.31;5050698;28;20051;-72
2022/12/17 16:44:06;;;;;;;0.40;0.40;;;;;;;-2.99;100.00;102689.72;5065573;28;20082;-72
2022/12/17 16:46:33;;;;;;;0.40;0.40;;;;;;;-3.30;100.00;102685.09;5070951;28;20075;-72
2022/12/17 16:49:06;;;;;;;0.40;0.40;;;;;;;-3.40;100.00;102656.94;5067859;28;20035;-72
2022/12/17 16:51:31;;;;;;;0.32;0.32;;;;;;;-3.50;100.00;102685.75;5065348;28;20106;-72
2022/12/17 16:53:57;;;;;;;0.40;0.40;;;;;;;-3.08;100.00;102691.44;5069253;28;20077;-72
2022/12/17 16:56:26;;;;;;;0.40;0.40;;;;;;;-3.27;100.00;102706.13;5047797;28;20039;-72
2022/12/17 16:58:51;;;;;;;0.40;0.40;;;;;;;-3.55;100.00;102670.81;5060311;28;20796;-71
2022/12/17 17:01:25;;;;;;;0.40;0.40;;;;;;;-3.61;100.00;102700.50;5063468;28;20031;-71
2022/12/17 17:03:50;;;;;;;0.50;0.50;;;;;;;-3.60;100.00;102704.91;5060283;28;20028;-71
2022/12/17 17:06:17;;;;;;;0.43;0.43;;;;;;;-3.80;100.00;102702.03;5062799;28;20040;-71
2022/12/17 17:08:42;;;;;;;0.40;0.40;;;;;;;-3.58;100.00;102699.69;5065459;28;20459;-71
2022/12/17 17:11:21;;;;;;;0.40;0.40;;;;;;;-3.48;100.00;102704.16;5065544;28;20036;-72
2022/12/17 17:13:48;;;;;;;0.40;0.40;;;;;;;-3.57;100.00;102706.66;5058594;28;21133;-72
2022/12/17 17:16:13;;;;;;;0.40;0.40;;;;;;;-3.67;100.00;102708.31;5062510;28;20534;-72
2022/12/17 17:18:39;;;;;;;0.40;0.40;;;;;;;-3.82;100.00;102712.53;5068370;28;20051;-72
2022/12/17 17:21:20;;;;;;;0.40;0.40;;;;;;;-3.72;100.00;102710.88;5062209;28;20188;-72
2022/12/17 17:23:46;;;;;;;0.40;0.40;;;;;;;-3.84;100.00;102708.13;5058643;28;20090;-72
2022/12/17 17:26:12;;;;;;;0.40;0.40;;;;;;;-3.95;100.00;102710.59;5063997;28;20123;-72
2022/12/17 17:28:38;;;;;;;0.50;0.50;;;;;;;-3.92;100.00;102693.16;5062451;28;20054;-72
2022/12/17 17:31:07;;;;;;;0.40;0.40;;;;;;;-3.83;100.00;102710.75;5058124;28;20538;-72
2022/12/17 17:33:34;;;;;;;0.50;0.50;;;;;;;-4.07;100.00;102700.81;5055326;28;20031;-72
2022/12/17 17:36:10;;;;;;;0.40;0.40;;;;;;;-4.00;100.00;102700.03;5056830;28;20535;-72
2022/12/17 17:38:37;;;;;;;0.40;0.40;;;;;;;-4.29;100.00;102700.53;5066434;28;20032;-72
2022/12/17 17:41:03;;;;;;;0.45;0.45;;;;;;;-4.35;100.00;102687.31;5060243;28;20036;-72
2022/12/17 17:43:29;;;;;;;0.40;0.40;;;;;;;-4.25;100.00;102701.47;5061224;28;20039;-72
2022/12/17 17:45:57;;;;;;;0.50;0.50;;;;;;;-3.98;100.00;102715.84;5064659;28;20048;-72
2022/12/17 17:48:23;;;;;;;0.40;0.40;;;;;;;-4.16;100.00;102695.47;5066584;28;20497;-72
2022/12/17 17:51:02;;;;;;;0.50;0.50;;;;;;;-4.18;100.00;102716.41;5063864;28;20068;-72
2022/12/17 17:53:27;;;;;;;0.40;0.40;;;;;;;-4.40;100.00;102712.63;5061919;28;20028;-72
2022/12/17 17:55:53;;;;;;;0.40;0.40;;;;;;;-4.26;100.00;102715.44;5061478;28;20362;-72
2022/12/17 17:58:19;;;;;;;0.40;0.40;;;;;;;-4.40;100.00;102686.41;5064857;28;20035;-72
2022/12/17 18:00:45;;;;;;;0.40;0.40;;;;;;;-4.43;100.00;102692.47;5064234;28;20371;-72
2022/12/17 18:03:10;;;;;;;0.40;0.40;;;;;;;-4.02;100.00;102727.13;5056728;28;20035;-72
2022/12/17 18:05:39;;;;;;;0.50;0.50;;;;;;;-4.20;100.00;102723.38;5066081;28;20150;-72
2022/12/17 18:08:04;;;;;;;0.40;0.40;;;;;;;-4.44;100.00;102698.56;5066512;28;20483;-72
2022/12/17 18:10:30;;;;;;;0.40;0.40;;;;;;;-4.52;100.00;102724.69;5069308;28;20040;-74
2022/12/17 18:15:39;;;;;;;0.50;0.50;;;;;;;-4.33;100.00;102745.94;5067821;28;20393;-73
2022/12/17 18:18:05;;;;;;;0.60;0.60;;;;;;;-4.67;100.00;102743.66;5066473;28;20032;-72
2022/12/17 18:20:30;;;;;;;0.60;0.60;;;;;;;-4.18;100.00;102741.78;5067578;28;20056;-73
2022/12/17 18:22:55;;;;;;;0.57;0.57;;;;;;;-4.26;100.00;102754.78;5064729;28;20040;-73
2022/12/17 18:25:21;;;;;;;0.50;0.50;;;;;;;-4.74;100.00;102722.59;5068493;28;20539;-73
2022/12/17 18:27:46;;;;;;;0.52;0.52;;;;;;;-4.73;100.00;102721.72;5068403;28;20039;-73
2022/12/17 18:30:12;;;;;;;0.65;0.65;;;;;;;-4.32;100.00;102742.44;5071310;28;22033;-74
2022/12/17 18:32:38;;;;;;;0.70;0.70;;;;;;;-4.61;100.00;102744.63;5065617;28;20031;-73
2022/12/17 18:35:03;;;;;;;0.45;0.45;;;;;;;-4.80;100.00;102735.59;5064729;28;20028;-73
2022/12/17 18:37:28;;;;;;;0.50;0.50;;;;;;;-4.86;100.00;102744.22;5074305;28;20024;-73
2022/12/17 18:39:54;;;;;;;0.60;0.60;;;;;;;-4.90;100.00;102747.66;5069387;28;20039;-73
2022/12/17 18:45:04;;;;;;;0.60;0.60;;;;;;;-4.71;100.00;102736.59;5067925;28;20042;-73
2022/12/17 18:47:29;;;;;;;0.60;0.60;;;;;;;-4.89;100.00;102731.06;5069099;28;20032;-73
2022/12/17 18:49:54;;;;;;;0.50;0.50;;;;;;;-4.92;100.00;102710.06;5061503;28;20028;-73
2022/12/17 18:52:22;;;;;;;0.50;0.50;;;;;;;-4.87;100.00;102730.22;5062539;28;20029;-73
2022/12/17 18:54:48;;;;;;;0.73;0.73;;;;;;;-4.98;100.00;102737.03;5068626;28;20025;-73
2022/12/17 18:57:13;;;;;;;0.60;0.60;;;;;;;-4.81;100.00;102742.56;5062319;28;20454;-74
2022/12/17 18:59:39;;;;;;;0.70;0.70;;;;;;;-5.05;100.00;102736.06;5068089;28;20028;-73
2022/12/17 19:02:05;;;;;;;0.57;0.57;;;;;;;-4.90;100.00;102750.25;5064103;28;20024;-73
2022/12/17 19:04:31;;;;;;;0.50;0.50;;;;;;;-4.92;100.00;102739.78;5068983;28;20032;-72
2022/12/17 19:06:57;;;;;;;0.50;0.50;;;;;;;-4.82;100.00;102728.56;5076791;28;20085;-73
2022/12/17 19:09:23;;;;;;;0.50;0.50;;;;;;;-4.79;100.00;102747.81;5077788;28;20433;-72
2022/12/17 19:11:49;;;;;;;0.60;0.60;;;;;;;-4.82;100.00;102748.66;5075256;28;20027;-73
2022/12/17 19:14:16;;;;;;;0.40;0.40;;;;;;;-5.13;100.00;102712.31;5076105;28;20028;-72
2022/12/17 19:16:41;;;;;;;0.50;0.50;;;;;;;-4.60;100.00;102747.25;5080186;28;20047;-73
2022/12/17 19:19:09;;;;;;;0.60;0.60;;;;;;;-4.60;100.00;102712.31;5081093;28;20154;-72
2022/12/17 19:21:35;;;;;;;0.60;0.60;;;;;;;-4.78;100.00;102719.03;5092419;28;20039;-73
2022/12/17 19:24:03;;;;;;;0.50;0.50;;;;;;;-4.90;100.00;102761.63;5072369;28;20472;-73
2022/12/17 19:26:29;;;;;;;0.50;0.50;;;;;;;-4.77;100.00;102756.59;5081839;28;20035;-73
2022/12/17 19:28:56;;;;;;;0.60;0.60;;;;;;;-4.69;100.00;102765.50;5083643;28;20073;-72
2022/12/17 19:31:25;;;;;;;0.50;0.50;;;;;;;-4.51;100.00;102759.66;5080355;28;20051;-73
2022/12/17 19:33:55;;;;;;;0.50;0.50;;;;;;;-4.50;100.00;102760.53;5074939;28;20405;-73
2022/12/17 19:36:21;;;;;;;0.47;0.47;;;;;;;-4.70;100.00;102759.34;5064214;28;20070;-73
2022/12/17 19:38:51;;;;;;;0.57;0.57;;;;;;;-4.90;100.00;102760.75;5082091;28;20024;-73
2022/12/17 19:41:17;;;;;;;0.55;0.55;;;;;;;-4.75;100.00;102765.38;5066905;28;20032;-73
2022/12/17 19:43:44;;;;;;;0.47;0.47;;;;;;;-4.65;100.00;102771.66;5082760;28;20016;-73
2022/12/17 19:46:12;;;;;;;0.55;0.55;;;;;;;-4.74;100.00;102780.25;5084955;28;20032;-73
2022/12/17 19:48:39;;;;;;;0.50;0.50;;;;;;;-4.80;100.00;102777.50;5079731;28;20028;-73
2022/12/17 19:51:05;;;;;;;0.50;0.50;;;;;;;-4.88;100.00;102741.56;5079969;28;20037;-73
2022/12/17 19:53:32;;;;;;;0.50;0.50;;;;;;;-5.00;100.00;102744.84;5077952;28;20119;-73
2022/12/17 19:56:09;;;;;;;0.57;0.57;;;;;;;-4.84;100.00;102769.59;5074807;28;20052;-73
2022/12/17 19:58:35;;;;;;;0.40;0.40;;;;;;;-5.07;100.00;102749.97;5076620;28;20055;-72
2022/12/17 20:01:08;;;;;;;0.50;0.50;;;;;;;-4.98;100.00;102773.72;5067300;28;20385;-73
2022/12/17 20:03:34;;;;;;;0.50;0.50;;;;;;;-4.85;100.00;102773.06;5074038;28;20020;-73
2022/12/17 20:05:59;;;;;;;0.50;0.50;;;;;;;-4.88;100.00;102773.00;5083560;28;20393;-73
2022/12/17 20:08:27;;;;;;;0.43;0.43;;;;;;;-4.93;100.00;102777.31;5082411;28;20115;-73
2022/12/17 20:10:53;;;;;;;0.43;0.43;;;;;;;-4.94;100.00;102783.41;5084255;28;20038;-73
2022/12/17 20:13:18;;;;;;;0.35;0.35;;;;;;;-5.16;100.00;102753.31;5080531;28;20099;-73
2022/12/17 20:15:43;;;;;;;0.40;0.40;;;;;;;-5.24;100.00;102747.94;5076686;28;20043;-73
2022/12/17 20:18:09;;;;;;;0.60;0.60;;;;;;;-4.99;100.00;102770.19;5085804;28;20043;-73
2022/12/17 20:20:34;;;;;;;0.55;0.55;;;;;;;-4.94;100.00;102798.22;5065379;28;20038;-73
2022/12/17 20:22:59;;;;;;;0.40;0.40;;;;;;;-4.96;100.00;102795.59;5082512;28;20039;-73
2022/12/17 20:25:24;;;;;;;0.40;0.40;;;;;;;-5.03;100.00;102775.38;5084148;28;20066;-73
2022/12/17 20:27:50;;;;;;;0.50;0.50;;;;;;;-5.00;100.00;102751.84;5081016;28;20027;-73
2022/12/17 20:30:15;;;;;;;0.50;0.50;;;;;;;-4.65;100.00;102793.53;5077156;28;20449;-73
2022/12/17 20:32:41;;;;;;;0.60;0.60;;;;;;;-4.97;100.00;102785.97;5080938;28;20594;-73
2022/12/17 20:35:07;;;;;;;0.50;0.50;;;;;;;-5.05;100.00;102777.06;5083160;28;20497;-73
2022/12/17 20:37:32;;;;;;;0.60;0.60;;;;;;;-4.95;100.00;102791.22;5074707;28;20046;-73
2022/12/17 20:39:58;;;;;;;0.60;0.60;;;;;;;-4.53;100.00;102805.97;5074667;28;20032;-73
2022/12/17 20:42:23;;;;;;;0.50;0.50;;;;;;;-4.56;100.00;102806.78;5078358;28;20064;-73
2022/12/17 20:44:48;;;;;;;0.60;0.60;;;;;;;-4.72;100.00;102804.75;5071257;28;20028;-73
2022/12/17 20:47:13;;;;;;;0.60;0.60;;;;;;;-5.22;100.00;102748.84;5065616;28;20063;-73
2022/12/17 20:49:39;;;;;;;0.50;0.50;;;;;;;-4.96;100.00;102772.00;5074845;28;20329;-73
2022/12/17 20:52:04;;;;;;;0.50;0.50;;;;;;;-4.94;100.00;102785.13;5072597;28;20067;-73
2022/12/17 20:54:30;;;;;;;0.60;0.60;;;;;;;-5.03;100.00;102783.22;5074637;28;20119;-73
2022/12/17 20:56:55;;;;;;;0.60;0.60;;;;;;;-4.78;100.00;102787.19;5077785;28;20104;-73
2022/12/17 20:59:22;;;;;;;0.50;0.50;;;;;;;-4.80;100.00;102759.16;5076195;28;20063;-73
2022/12/17 21:01:47;;;;;;;0.50;0.50;;;;;;;-4.85;100.00;102785.31;5075413;28;20024;-73
2022/12/17 21:04:13;;;;;;;0.60;0.60;;;;;;;-4.94;100.00;102777.25;5058045;28;20036;-73
2022/12/17 21:06:44;;;;;;;0.50;0.50;;;;;;;-5.12;100.00;102755.13;5075761;28;20024;-73
2022/12/17 21:09:10;;;;;;;0.40;0.40;;;;;;;-4.94;100.00;102775.53;5077771;28;20047;-74
2022/12/17 21:11:36;;;;;;;0.40;0.40;;;;;;;-5.25;100.00;102754.03;5053330;28;20020;-74
2022/12/17 21:14:09;;;;;;;0.50;0.50;;;;;;;-5.33;100.00;102738.16;5061013;28;20863;-74
2022/12/17 21:16:35;;;;;;;0.50;0.50;;;;;;;-5.22;100.00;102761.03;5054524;28;20116;-71
2022/12/17 21:19:01;;;;;;;0.47;0.47;;;;;;;-5.32;100.00;102752.13;5053676;28;20028;-74
2022/12/17 21:21:29;;;;;;;0.50;0.50;;;;;;;-5.18;100.00;102779.47;5066081;28;20937;-74
2022/12/17 21:23:55;;;;;;;0.40;0.40;;;;;;;-5.21;100.00;102786.38;5061691;28;20020;-73
2022/12/17 21:26:26;;;;;;;0.60;0.60;;;;;;;-5.20;100.00;102785.53;5064657;28;20028;-74
2022/12/17 21:28:53;;;;;;;0.40;0.40;;;;;;;-5.21;100.00;102789.91;5082849;28;20024;-74
2022/12/17 21:31:20;;;;;;;0.50;0.50;;;;;;;-5.24;100.00;102791.56;5062965;28;20217;-74
2022/12/17 21:33:46;;;;;;;0.60;0.60;;;;;;;-5.21;100.00;102789.00;5064572;28;20024;-74
2022/12/17 21:36:12;;;;;;;0.60;0.60;;;;;;;-5.24;100.00;102771.50;5060454;28;20032;-74
2022/12/17 21:38:37;;;;;;;0.60;0.60;;;;;;;-5.27;100.00;102776.66;5059196;28;20304;-73
2022/12/17 21:41:09;;;;;;;0.55;0.55;;;;;;;-5.13;100.00;102800.50;5060136;28;20385;-73
2022/12/17 21:43:35;;;;;;;0.50;0.50;;;;;;;-5.22;100.00;102811.69;5078919;28;20024;-74
2022/12/17 21:46:02;;;;;;;0.60;0.60;;;;;;;-4.92;100.00;102814.88;5066701;28;20028;-74
2022/12/17 21:48:27;;;;;;;0.60;0.60;;;;;;;-5.23;100.00;102798.56;5046283;28;20032;-74
2022/12/17 21:50:52;;;;;;;0.50;0.50;;;;;;;-5.28;100.00;102780.16;5071297;28;20023;-74
2022/12/17 21:53:18;;;;;;;0.50;0.50;;;;;;;-5.11;100.00;102819.75;5066021;28;20131;-73
2022/12/17 21:55:43;;;;;;;0.50;0.50;;;;;;;-5.17;100.00;102835.34;5068239;28;20038;-73
2022/12/17 21:58:08;;;;;;;0.50;0.50;;;;;;;-5.27;100.00;102815.97;5053214;28;20543;-74
2022/12/17 22:00:34;;;;;;;0.50;0.50;;;;;;;-5.49;100.00;102809.38;5044448;28;20040;-73
2022/12/17 22:02:59;;;;;;;0.50;0.50;;;;;;;-5.32;100.00;102788.78;5064241;28;20028;-74
2022/12/17 22:05:25;;;;;;;0.45;0.45;;;;;;;-5.29;100.00;102826.38;5049291;28;20408;-74
2022/12/17 22:07:51;;;;;;;0.50;0.50;;;;;;;-5.35;100.00;102821.03;5052284;28;20028;-74
2022/12/17 22:10:16;;;;;;;0.40;0.40;;;;;;;-5.58;100.00;102808.38;5061970;28;20114;-74
2022/12/17 22:15:25;;;;;;;0.50;0.50;;;;;;;-5.65;100.00;102810.78;5058926;28;21067;-74
2022/12/17 22:17:52;;;;;;;0.50;0.50;;;;;;;-5.67;100.00;102800.31;5046087;28;20048;-74
2022/12/17 22:20:17;;;;;;;0.50;0.50;;;;;;;-5.75;100.00;102792.31;5041254;28;20059;-74
2022/12/17 22:22:43;;;;;;;0.50;0.50;;;;;;;-5.66;100.00;102819.50;5061061;28;20035;-74
2022/12/17 22:25:09;;;;;;;0.40;0.40;;;;;;;-5.77;100.00;102796.63;5046622;28;20040;-74
2022/12/17 22:27:34;;;;;;;0.40;0.40;;;;;;;-5.99;100.00;102757.75;5046185;28;20485;-74
2022/12/17 22:33:02;;;;;;;0.50;0.50;;;;;;;-5.73;100.00;102806.31;5062323;28;20064;-74
2022/12/17 22:35:41;;;;;;;0.40;0.40;;;;;;;-5.67;100.00;102820.34;5063973;28;20419;-74
2022/12/17 22:38:06;;;;;;;0.40;0.40;;;;;;;-5.76;100.00;102810.56;5060344;28;20119;-74
2022/12/17 22:40:35;;;;;;;0.50;0.50;;;;;;;-5.51;100.00;102830.31;5045216;28;20028;-74
2022/12/17 22:45:44;;;;;;;0.40;0.40;;;;;;;-5.63;100.00;102845.75;5061751;28;20121;-74
2022/12/17 22:48:11;;;;;;;0.40;0.40;;;;;;;-5.64;100.00;102839.63;5043489;28;20864;-74
2022/12/17 22:50:37;;;;;;;0.50;0.50;;;;;;;-5.63;100.00;102835.28;5070011;28;20051;-74
2022/12/17 22:53:03;;;;;;;0.50;0.50;;;;;;;-5.62;100.00;102823.94;5045889;28;20119;-74
2022/12/17 22:55:29;;;;;;;0.40;0.40;;;;;;;-5.82;100.00;102798.25;5076336;28;20032;-74
2022/12/17 22:57:55;;;;;;;0.40;0.40;;;;;;;-5.68;100.00;102829.94;5057075;28;21044;-74
2022/12/17 23:00:22;;;;;;;0.40;0.40;;;;;;;-5.75;100.00;102833.28;5059976;28;20470;-73
2022/12/17 23:02:51;;;;;;;0.40;0.40;;;;;;;-5.72;100.00;102826.38;5044133;28;20245;-74
2022/12/17 23:05:17;;;;;;;0.50;0.50;;;;;;;-5.98;100.00;102828.41;5062125;28;20020;-74
2022/12/17 23:07:42;;;;;;;0.60;0.60;;;;;;;-6.04;100.00;102817.81;5063201;28;20425;-74
2022/12/17 23:10:08;;;;;;;0.50;0.50;;;;;;;-6.26;100.00;102801.63;5060757;28;20124;-74
2022/12/17 23:12:52;;;;;;;0.45;0.45;;;;;;;-6.16;100.00;102812.31;5056484;28;20100;-74
2022/12/17 23:15:21;;;;;;;0.50;0.50;;;;;;;-6.18;100.00;102817.50;5043464;28;20029;-74
2022/12/17 23:17:47;;;;;;;0.40;0.40;;;;;;;-6.24;100.00;102820.88;5071918;28;20024;-74
2022/12/17 23:20:13;;;;;;;0.50;0.50;;;;;;;-6.46;100.00;102776.75;5047264;28;20043;-74
2022/12/17 23:22:38;;;;;;;0.50;0.50;;;;;;;-6.45;100.00;102787.22;5065852;28;20100;-74
2022/12/17 23:25:04;;;;;;;0.50;0.50;;;;;;;-6.43;100.00;102808.19;5060322;28;20386;-74
2022/12/17 23:27:29;;;;;;;0.50;0.50;;;;;;;-6.74;100.00;102773.47;5063810;28;20037;-74
2022/12/17 23:29:55;;;;;;;0.60;0.60;;;;;;;-6.56;100.00;102810.50;5061393;28;20478;-74
2022/12/17 23:32:20;;;;;;;0.50;0.50;;;;;;;-6.77;100.00;102779.50;5056327;28;20121;-74
2022/12/17 23:34:45;;;;;;;0.50;0.50;;;;;;;-6.80;100.00;102800.31;5052485;28;20398;-74
2022/12/17 23:37:11;;;;;;;0.50;0.50;;;;;;;-6.79;100.00;102804.69;5043690;28;20525;-74
2022/12/17 23:39:36;;;;;;;0.50;0.50;;;;;;;-6.91;100.00;102793.91;5060580;28;20124;-74
2022/12/17 23:42:01;;;;;;;0.52;0.52;;;;;;;-6.74;100.00;102815.25;5055272;28;20150;-74
2022/12/17 23:44:26;;;;;;;0.40;0.40;;;;;;;-6.99;100.00;102771.09;5052101;28;20056;-74
2022/12/17 23:46:52;;;;;;;0.40;0.40;;;;;;;-6.98;100.00;102774.59;5050823;28;20036;-74
2022/12/17 23:49:17;;;;;;;0.50;0.50;;;;;;;-6.83;100.00;102789.78;5050884;28;20111;-74
2022/12/17 23:51:42;;;;;;;0.50;0.50;;;;;;;-6.73;100.00;102810.06;5064146;28;20135;-74
2022/12/17 23:54:08;;;;;;;0.40;0.40;;;;;;;-6.80;100.00;102798.56;5061314;28;20638;-74
2022/12/17 23:56:35;;;;;;;0.40;0.40;;;;;;;-6.95;100.00;102757.25;5048621;28;20020;-74
2022/12/17 23:59:01;;;;;;;0.47;0.47;;;;;;;-6.76;100.00;102794.34;5060711;28;20038;-74
